createdAt,value
2018-05-13T00:02:16.372Z,16.76
2018-05-13T00:04:43.919Z,16.75
2018-05-13T00:07:11.441Z,16.69
2018-05-13T00:09:38.980Z,16.61
2018-05-13T00:12:06.520Z,16.53
2018-05-13T00:14:34.063Z,16.58
2018-05-13T00:17:01.597Z,16.56
2018-05-13T00:19:29.121Z,16.48
2018-05-13T00:21:56.656Z,16.47
2018-05-13T00:24:24.166Z,16.36
2018-05-13T00:26:51.686Z,16.21
2018-05-13T00:29:19.259Z,16.09
2018-05-13T00:31:46.770Z,15.97
2018-05-13T00:34:14.291Z,15.95
2018-05-13T00:36:41.822Z,15.91
2018-05-13T00:39:09.355Z,16.00
2018-05-13T00:41:36.874Z,16.01
2018-05-13T00:44:04.462Z,16.01
2018-05-13T00:46:31.986Z,15.99
2018-05-13T00:48:59.540Z,15.98
2018-05-13T00:51:27.069Z,15.98
2018-05-13T00:53:54.563Z,15.92
2018-05-13T00:56:22.107Z,15.85
2018-05-13T00:58:49.637Z,15.83
2018-05-13T01:01:17.146Z,15.83
2018-05-13T01:03:44.674Z,15.82
2018-05-13T01:06:12.258Z,15.79
2018-05-13T01:08:39.776Z,15.75
2018-05-13T01:11:07.325Z,15.71
2018-05-13T01:13:34.855Z,15.70
2018-05-13T01:16:02.374Z,15.66
2018-05-13T01:18:29.917Z,15.58
2018-05-13T01:20:57.480Z,15.44
2018-05-13T01:23:25.010Z,15.47
2018-05-13T01:25:52.533Z,15.59
2018-05-13T01:28:20.066Z,15.73
2018-05-13T01:30:47.582Z,15.79
2018-05-13T01:33:15.089Z,15.81
2018-05-13T01:35:42.659Z,15.81
2018-05-13T01:38:10.188Z,15.82
2018-05-13T01:40:37.700Z,15.81
2018-05-13T01:43:05.264Z,15.87
2018-05-13T01:45:32.806Z,15.87
2018-05-13T01:48:00.372Z,15.87
2018-05-13T01:50:27.901Z,15.80
2018-05-13T01:52:55.431Z,15.78
2018-05-13T01:55:22.964Z,15.74
2018-05-13T01:57:51.454Z,15.82
2018-05-13T02:00:18.996Z,15.82
2018-05-13T02:02:46.546Z,15.72
2018-05-13T02:05:14.074Z,15.85
2018-05-13T02:07:41.632Z,15.86
2018-05-13T02:10:09.145Z,15.78
2018-05-13T02:12:36.690Z,15.77
2018-05-13T02:15:04.250Z,15.80
2018-05-13T02:17:31.759Z,15.80
2018-05-13T02:19:59.359Z,15.81
2018-05-13T02:22:26.883Z,15.74
2018-05-13T02:24:54.385Z,15.74
2018-05-13T02:27:21.959Z,15.82
2018-05-13T02:29:49.549Z,15.85
2018-05-13T02:32:17.085Z,15.79
2018-05-13T02:34:44.611Z,15.80
2018-05-13T02:37:12.125Z,15.78
2018-05-13T02:39:39.639Z,15.80
2018-05-13T02:42:07.188Z,15.77
2018-05-13T02:44:34.707Z,15.74
2018-05-13T02:49:33.335Z,15.63
2018-05-13T02:52:00.842Z,15.53
2018-05-13T02:54:28.341Z,15.47
2018-05-13T02:56:55.906Z,15.38
2018-05-13T02:59:23.451Z,15.40
2018-05-13T03:01:50.991Z,15.35
2018-05-13T03:04:18.515Z,15.29
2018-05-13T03:06:46.020Z,15.22
2018-05-13T03:09:13.561Z,15.25
2018-05-13T03:11:41.106Z,15.22
2018-05-13T03:14:08.617Z,15.16
2018-05-13T03:16:36.162Z,15.07
2018-05-13T03:19:03.716Z,14.99
2018-05-13T03:21:31.271Z,14.91
2018-05-13T03:23:58.771Z,14.91
2018-05-13T03:26:26.331Z,14.85
2018-05-13T03:28:53.860Z,14.80
2018-05-13T03:31:21.378Z,14.74
2018-05-13T03:33:48.945Z,14.69
2018-05-13T03:36:16.489Z,14.63
2018-05-13T03:38:44.015Z,14.59
2018-05-13T03:41:12.549Z,14.54
2018-05-13T03:43:40.078Z,14.56
2018-05-13T03:46:07.606Z,14.65
2018-05-13T03:48:35.162Z,14.81
2018-05-13T03:51:02.681Z,15.00
2018-05-13T03:53:30.228Z,15.25
2018-05-13T03:55:57.775Z,15.53
2018-05-13T03:58:25.309Z,15.84
2018-05-13T04:00:53.822Z,16.17
2018-05-13T04:03:21.354Z,16.54
2018-05-13T04:05:48.887Z,17.01
2018-05-13T04:11:37.248Z,16.87
2018-05-13T04:14:16.602Z,17.24
2018-05-13T04:16:44.118Z,17.55
2018-05-13T04:19:11.671Z,18.25
2018-05-13T04:21:39.228Z,19.04
2018-05-13T04:24:06.760Z,19.60
2018-05-13T04:26:34.408Z,20.04
2018-05-13T04:29:02.807Z,20.24
2018-05-13T04:31:30.356Z,20.58
2018-05-13T04:33:57.926Z,20.70
2018-05-13T04:36:25.553Z,20.90
2018-05-13T04:38:53.075Z,21.02
2018-05-13T04:41:20.644Z,21.57
2018-05-13T04:43:48.197Z,22.08
2018-05-13T04:46:15.729Z,20.70
2018-05-13T04:48:43.280Z,22.77
2018-05-13T04:51:10.886Z,22.82
2018-05-13T04:53:38.405Z,22.76
2018-05-13T04:56:05.970Z,23.07
2018-05-13T04:58:34.642Z,21.03
2018-05-13T05:01:02.189Z,23.32
2018-05-13T05:03:29.763Z,24.41
2018-05-13T05:05:57.944Z,24.79
2018-05-13T05:08:26.229Z,25.07
2018-05-13T05:10:53.758Z,25.24
2018-05-13T05:13:22.247Z,25.85
2018-05-13T05:15:49.825Z,25.86
2018-05-13T05:18:17.341Z,25.63
2018-05-13T05:20:44.899Z,24.28
2018-05-13T05:23:12.446Z,24.23
2018-05-13T05:25:39.970Z,24.48
2018-05-13T05:28:07.507Z,26.23
2018-05-13T05:30:35.044Z,27.05
2018-05-13T05:33:02.541Z,27.50
2018-05-13T05:35:30.090Z,25.50
2018-05-13T05:37:57.624Z,24.76
2018-05-13T05:40:25.196Z,26.59
2018-05-13T05:42:52.750Z,25.05
2018-05-13T05:45:20.314Z,24.39
2018-05-13T05:47:47.836Z,25.69
2018-05-13T05:50:15.415Z,26.67
2018-05-13T05:52:42.909Z,27.29
2018-05-13T05:55:10.439Z,25.15
2018-05-13T05:57:38.011Z,24.99
2018-05-13T06:00:05.530Z,25.14
2018-05-13T06:02:33.115Z,25.19
2018-05-13T06:05:01.285Z,25.00
2018-05-13T06:07:28.847Z,24.57
2018-05-13T06:09:56.389Z,24.50
2018-05-13T06:12:23.988Z,24.38
2018-05-13T06:14:51.532Z,25.00
2018-05-13T06:17:19.091Z,24.92
2018-05-13T06:19:46.729Z,25.26
2018-05-13T06:22:14.235Z,25.17
2018-05-13T06:24:41.767Z,26.52
2018-05-13T06:27:09.361Z,26.09
2018-05-13T06:29:36.878Z,26.92
2018-05-13T06:32:04.409Z,26.76
2018-05-13T06:34:31.959Z,26.78
2018-05-13T06:36:59.507Z,27.31
2018-05-13T06:39:27.021Z,26.79
2018-05-13T06:41:54.567Z,26.93
2018-05-13T06:44:22.069Z,29.02
2018-05-13T06:46:49.607Z,29.00
2018-05-13T06:49:17.180Z,30.23
2018-05-13T06:51:44.688Z,30.47
2018-05-13T06:54:12.234Z,28.95
2018-05-13T06:56:39.816Z,28.17
2018-05-13T06:59:07.387Z,29.53
2018-05-13T07:01:34.906Z,27.52
2018-05-13T07:04:02.491Z,27.30
2018-05-13T07:06:30.066Z,27.64
2018-05-13T07:08:57.602Z,28.49
2018-05-13T07:11:25.138Z,29.66
2018-05-13T07:13:52.692Z,29.49
2018-05-13T07:16:20.305Z,28.73
2018-05-13T07:18:48.795Z,28.77
2018-05-13T07:21:16.313Z,28.34
2018-05-13T07:23:45.433Z,29.54
2018-05-13T07:26:14.751Z,30.97
2018-05-13T07:28:42.342Z,30.74
2018-05-13T07:31:09.877Z,29.71
2018-05-13T07:33:37.421Z,29.75
2018-05-13T07:36:04.966Z,29.63
2018-05-13T07:38:32.477Z,28.10
2018-05-13T07:41:00.005Z,28.97
2018-05-13T07:43:27.547Z,29.26
2018-05-13T07:45:55.093Z,29.39
2018-05-13T07:48:22.662Z,28.91
2018-05-13T07:50:50.221Z,29.02
2018-05-13T07:53:17.779Z,28.61
2018-05-13T07:55:45.330Z,28.79
2018-05-13T07:58:12.838Z,31.19
2018-05-13T08:00:40.355Z,30.56
2018-05-13T08:03:07.894Z,29.45
2018-05-13T08:05:35.412Z,30.92
2018-05-13T08:08:02.942Z,29.88
2018-05-13T08:10:30.502Z,29.64
2018-05-13T08:12:57.998Z,32.18
2018-05-13T08:15:25.538Z,30.14
2018-05-13T08:17:53.063Z,30.43
2018-05-13T08:20:20.672Z,30.62
2018-05-13T08:22:49.094Z,31.98
2018-05-13T08:25:16.642Z,31.01
2018-05-13T08:27:44.180Z,29.91
2018-05-13T08:30:11.706Z,29.44
2018-05-13T08:32:39.325Z,30.11
2018-05-13T08:35:06.839Z,30.97
2018-05-13T08:37:34.354Z,32.61
2018-05-13T08:40:01.961Z,33.19
2018-05-13T08:42:29.493Z,30.82
2018-05-13T08:44:57.124Z,32.04
2018-05-13T08:47:24.691Z,32.71
2018-05-13T08:49:52.218Z,31.17
2018-05-13T08:52:19.723Z,31.43
2018-05-13T08:54:47.271Z,32.37
2018-05-13T08:57:14.765Z,34.11
2018-05-13T08:59:43.324Z,34.98
2018-05-13T09:02:10.807Z,34.86
2018-05-13T09:04:38.401Z,31.80
2018-05-13T09:07:05.888Z,31.16
2018-05-13T09:09:33.536Z,32.26
2018-05-13T09:12:01.082Z,32.13
2018-05-13T09:14:28.719Z,31.84
2018-05-13T09:16:57.460Z,34.16
2018-05-13T09:19:25.177Z,35.16
2018-05-13T09:21:52.702Z,34.42
2018-05-13T09:24:20.267Z,34.14
2018-05-13T09:26:47.858Z,33.83
2018-05-13T09:29:15.401Z,34.25
2018-05-13T09:31:43.001Z,35.22
2018-05-13T09:34:10.547Z,36.22
2018-05-13T09:36:38.130Z,33.84
2018-05-13T09:39:05.722Z,32.40
2018-05-13T09:41:33.435Z,31.11
2018-05-13T09:44:00.963Z,31.99
2018-05-13T09:46:28.502Z,32.38
2018-05-13T09:48:56.047Z,31.71
2018-05-13T09:51:23.726Z,33.87
2018-05-13T09:53:51.166Z,34.00
2018-05-13T09:56:18.717Z,31.79
2018-05-13T09:58:46.280Z,33.57
2018-05-13T10:01:13.810Z,32.96
2018-05-13T10:03:41.385Z,34.79
2018-05-13T10:06:08.934Z,36.11
2018-05-13T10:08:36.451Z,35.66
2018-05-13T10:11:04.035Z,34.67
2018-05-13T10:13:32.490Z,29.17
2018-05-13T10:16:00.103Z,32.56
2018-05-13T10:18:27.627Z,31.95
2018-05-13T10:20:55.165Z,33.03
2018-05-13T10:23:22.748Z,33.14
2018-05-13T10:25:50.307Z,34.86
2018-05-13T10:28:17.966Z,33.41
2018-05-13T10:30:45.682Z,31.57
2018-05-13T10:33:13.214Z,32.97
2018-05-13T10:35:40.810Z,35.42
2018-05-13T10:38:08.346Z,33.22
2018-05-13T10:40:36.032Z,32.78
2018-05-13T10:43:03.627Z,34.52
2018-05-13T10:45:31.287Z,34.48
2018-05-13T10:47:58.866Z,34.41
2018-05-13T10:50:26.397Z,32.02
2018-05-13T10:52:53.917Z,32.32
2018-05-13T10:55:21.492Z,33.03
2018-05-13T10:57:49.173Z,32.65
2018-05-13T11:00:16.642Z,35.11
2018-05-13T11:02:44.162Z,34.31
2018-05-13T11:05:11.670Z,32.74
2018-05-13T11:07:39.264Z,33.87
2018-05-13T11:10:06.750Z,34.82
2018-05-13T11:12:34.335Z,34.63
2018-05-13T11:15:01.918Z,32.30
2018-05-13T11:17:29.471Z,31.36
2018-05-13T11:19:56.991Z,30.60
2018-05-13T11:22:24.638Z,29.91
2018-05-13T11:24:52.151Z,30.32
2018-05-13T11:27:19.704Z,30.90
2018-05-13T11:29:47.274Z,29.58
2018-05-13T11:32:14.769Z,27.70
2018-05-13T11:34:42.278Z,27.32
2018-05-13T11:37:09.830Z,27.27
2018-05-13T11:39:37.374Z,28.24
2018-05-13T11:42:04.888Z,28.76
2018-05-13T11:44:32.431Z,29.58
2018-05-13T11:46:59.966Z,29.68
2018-05-13T11:49:27.497Z,31.43
2018-05-13T11:51:55.045Z,30.67
2018-05-13T11:54:22.549Z,30.23
2018-05-13T11:56:50.049Z,29.21
2018-05-13T11:59:17.583Z,27.47
2018-05-13T12:01:45.106Z,27.29
2018-05-13T12:04:12.656Z,27.67
2018-05-13T12:06:40.193Z,27.60
2018-05-13T12:09:07.697Z,27.11
2018-05-13T12:11:35.177Z,27.34
2018-05-13T12:14:02.700Z,26.90
2018-05-13T12:16:30.196Z,26.66
2018-05-13T12:18:57.714Z,26.61
2018-05-13T12:21:25.234Z,27.13
2018-05-13T12:23:52.775Z,26.88
2018-05-13T12:26:20.313Z,26.64
2018-05-13T12:28:47.883Z,26.34
2018-05-13T12:31:15.397Z,25.98
2018-05-13T12:33:42.897Z,25.85
2018-05-13T12:36:10.418Z,25.85
2018-05-13T12:38:37.919Z,25.89
2018-05-13T12:41:05.403Z,26.03
2018-05-13T12:43:32.925Z,26.57
2018-05-13T12:46:00.426Z,26.31
2018-05-13T12:48:27.922Z,26.27
2018-05-13T12:50:55.467Z,26.39
2018-05-13T12:53:23.020Z,26.31
2018-05-13T12:55:50.511Z,26.32
2018-05-13T12:58:18.069Z,26.93
2018-05-13T13:00:45.530Z,27.29
2018-05-13T13:03:13.025Z,27.21
2018-05-13T13:05:40.537Z,27.03
2018-05-13T13:08:08.023Z,27.16
2018-05-13T13:10:35.513Z,26.99
2018-05-13T13:13:03.041Z,26.65
2018-05-13T13:15:30.549Z,26.59
2018-05-13T13:17:58.049Z,26.39
2018-05-13T13:20:25.561Z,26.34
2018-05-13T13:22:53.053Z,26.05
2018-05-13T13:25:20.555Z,25.93
2018-05-13T13:27:48.086Z,25.94
2018-05-13T13:30:15.592Z,25.80
2018-05-13T13:32:43.086Z,25.65
2018-05-13T13:35:10.606Z,26.02
2018-05-13T13:37:38.094Z,26.38
2018-05-13T13:40:05.583Z,26.14
2018-05-13T13:42:33.111Z,26.13
2018-05-13T13:45:00.595Z,25.96
2018-05-13T13:47:28.080Z,26.24
2018-05-13T13:49:55.599Z,26.70
2018-05-13T13:52:23.093Z,26.71
2018-05-13T13:54:50.577Z,26.60
2018-05-13T13:57:19.063Z,26.35
2018-05-13T13:59:46.555Z,26.21
2018-05-13T14:02:14.045Z,26.35
2018-05-13T14:04:41.575Z,26.34
2018-05-13T14:07:09.071Z,26.67
2018-05-13T14:09:36.574Z,26.89
2018-05-13T14:12:04.115Z,26.62
2018-05-13T14:14:31.613Z,26.33
2018-05-13T14:16:59.112Z,26.45
2018-05-13T14:19:26.629Z,26.61
2018-05-13T14:21:54.114Z,26.49
2018-05-13T14:24:21.610Z,26.36
2018-05-13T14:26:49.118Z,26.17
2018-05-13T14:29:16.677Z,26.39
2018-05-13T14:31:44.127Z,26.70
2018-05-13T14:34:11.642Z,26.60
2018-05-13T14:36:39.135Z,26.57
2018-05-13T14:39:12.124Z,26.66
2018-05-13T14:41:34.167Z,26.66
2018-05-13T14:44:01.713Z,26.89
2018-05-13T14:46:29.224Z,26.92
2018-05-13T14:48:56.733Z,27.13
2018-05-13T14:51:24.404Z,27.22
2018-05-13T14:53:52.862Z,27.41
2018-05-13T14:56:20.390Z,27.40
2018-05-13T14:58:47.945Z,27.49
2018-05-13T15:01:15.443Z,27.56
2018-05-13T15:03:42.961Z,27.40
2018-05-13T15:06:10.454Z,27.17
2018-05-13T15:08:37.959Z,27.04
2018-05-13T15:11:05.726Z,27.09
2018-05-13T15:13:33.244Z,27.01
2018-05-13T15:16:00.733Z,26.70
2018-05-13T15:18:28.240Z,26.77
2018-05-13T15:20:55.730Z,26.73
2018-05-13T15:23:23.224Z,26.56
2018-05-13T15:25:50.745Z,26.11
2018-05-13T15:28:18.236Z,25.76
2018-05-13T15:30:45.731Z,25.50
2018-05-13T15:33:13.254Z,25.35
2018-05-13T15:35:40.746Z,25.11
2018-05-13T15:38:08.238Z,25.28
2018-05-13T15:40:35.754Z,25.43
2018-05-13T15:43:03.411Z,25.29
2018-05-13T15:45:30.776Z,25.09
2018-05-13T15:47:58.295Z,25.08
2018-05-13T15:50:25.797Z,24.57
2018-05-13T15:52:53.301Z,24.38
2018-05-13T15:55:20.836Z,24.12
2018-05-13T15:57:48.348Z,23.95
2018-05-13T16:00:15.849Z,23.87
2018-05-13T16:02:43.373Z,24.13
2018-05-13T16:05:10.867Z,24.27
2018-05-13T16:07:38.378Z,24.52
2018-05-13T16:10:05.900Z,24.74
2018-05-13T16:12:33.407Z,24.95
2018-05-13T16:15:00.931Z,24.85
2018-05-13T16:17:28.449Z,24.78
2018-05-13T16:19:56.766Z,24.53
2018-05-13T16:22:24.270Z,24.31
2018-05-13T16:24:51.786Z,23.99
2018-05-13T16:27:19.274Z,23.94
2018-05-13T16:29:46.765Z,23.85
2018-05-13T16:32:14.274Z,23.67
2018-05-13T16:34:41.761Z,23.58
2018-05-13T16:37:09.258Z,23.54
2018-05-13T16:39:36.773Z,23.42
2018-05-13T16:42:04.261Z,23.27
2018-05-13T16:44:31.745Z,23.17
2018-05-13T16:46:59.258Z,23.05
2018-05-13T16:49:26.755Z,23.03
2018-05-13T16:51:54.242Z,22.96
2018-05-13T16:54:21.769Z,22.90
2018-05-13T16:56:49.257Z,22.89
2018-05-13T16:59:16.750Z,22.86
2018-05-13T17:01:44.265Z,22.85
2018-05-13T17:04:11.758Z,22.83
2018-05-13T17:06:39.253Z,22.80
2018-05-13T17:09:06.775Z,22.76
2018-05-13T17:11:34.270Z,22.72
2018-05-13T17:14:01.771Z,22.72
2018-05-13T17:16:29.303Z,22.63
2018-05-13T17:18:56.797Z,22.57
2018-05-13T17:21:24.289Z,22.54
2018-05-13T17:23:51.805Z,22.51
2018-05-13T17:26:19.314Z,21.94
2018-05-13T17:28:46.810Z,21.53
2018-05-13T17:31:14.321Z,21.44
2018-05-13T17:33:41.805Z,21.32
2018-05-13T17:36:09.309Z,21.14
2018-05-13T17:38:36.835Z,20.95
2018-05-13T17:41:04.341Z,20.79
2018-05-13T17:43:31.851Z,20.55
2018-05-13T17:45:59.371Z,20.22
2018-05-13T17:48:26.857Z,19.93
2018-05-13T17:50:54.348Z,19.80
2018-05-13T17:53:22.819Z,19.61
2018-05-13T17:55:50.319Z,19.57
2018-05-13T17:58:17.810Z,19.50
2018-05-13T18:00:45.384Z,19.44
2018-05-13T18:03:12.876Z,19.31
2018-05-13T18:05:40.347Z,19.22
2018-05-13T18:08:07.866Z,19.15
2018-05-13T18:10:35.376Z,19.00
2018-05-13T18:13:02.976Z,18.78
2018-05-13T18:15:30.515Z,18.63
2018-05-13T18:17:58.047Z,18.52
2018-05-13T18:20:25.572Z,18.45
2018-05-13T18:22:53.124Z,18.41
2018-05-13T18:25:20.659Z,18.41
2018-05-13T18:27:48.186Z,18.38
2018-05-13T18:30:15.718Z,18.35
2018-05-13T18:32:43.281Z,18.32
2018-05-13T18:35:10.811Z,18.29
2018-05-13T18:37:38.329Z,18.26
2018-05-13T18:40:05.947Z,18.24
2018-05-13T18:42:33.636Z,18.22
2018-05-13T18:45:01.466Z,18.18
2018-05-13T18:47:29.120Z,18.17
2018-05-13T18:49:56.772Z,18.18
2018-05-13T18:52:24.624Z,18.17
2018-05-13T18:54:52.629Z,18.15
2018-05-13T18:57:20.170Z,18.14
2018-05-13T18:59:47.850Z,18.16
2018-05-13T19:02:15.388Z,18.20
2018-05-13T19:04:43.855Z,18.22
2018-05-13T19:07:11.581Z,18.28
2018-05-13T19:09:39.495Z,18.32
2018-05-13T19:12:07.186Z,18.35
2018-05-13T19:14:34.751Z,18.38
2018-05-13T19:17:02.339Z,18.41
2018-05-13T19:19:29.853Z,18.48
2018-05-13T19:21:57.375Z,18.55
2018-05-13T19:24:24.954Z,18.63
2018-05-13T19:26:52.662Z,18.69
2018-05-13T19:29:21.118Z,18.75
2018-05-13T19:31:48.638Z,18.37
2018-05-13T19:34:16.997Z,18.00
2018-05-13T19:36:44.599Z,17.61
2018-05-13T19:39:12.128Z,17.53
2018-05-13T19:41:39.646Z,17.52
2018-05-13T19:44:07.233Z,17.43
2018-05-13T19:46:34.784Z,17.06
2018-05-13T19:49:02.351Z,17.10
2018-05-13T19:51:29.958Z,17.09
2018-05-13T19:53:57.533Z,17.11
2018-05-13T19:56:25.081Z,17.10
2018-05-13T19:58:52.631Z,17.03
2018-05-13T20:01:20.170Z,16.91
2018-05-13T20:03:48.848Z,16.87
2018-05-13T20:06:16.397Z,16.85
2018-05-13T20:08:43.970Z,16.84
2018-05-13T20:11:11.478Z,16.80
2018-05-13T20:13:39.088Z,16.75
2018-05-13T20:16:06.629Z,16.72
2018-05-13T20:18:34.135Z,16.66
2018-05-13T20:21:01.737Z,16.57
2018-05-13T20:23:29.315Z,16.48
2018-05-13T20:25:56.778Z,16.38
2018-05-13T20:28:24.336Z,16.33
2018-05-13T20:30:51.888Z,16.31
2018-05-13T20:33:19.425Z,16.31
2018-05-13T20:35:46.989Z,16.30
2018-05-13T20:38:14.550Z,16.22
2018-05-13T20:40:42.095Z,16.23
2018-05-13T20:43:09.696Z,16.21
2018-05-13T20:45:37.219Z,16.14
2018-05-13T20:48:04.792Z,16.03
2018-05-13T20:50:32.365Z,16.02
2018-05-13T20:52:59.995Z,16.06
2018-05-13T20:55:27.543Z,16.09
2018-05-13T20:57:55.195Z,16.11
2018-05-13T21:00:22.711Z,16.16
2018-05-13T21:02:50.259Z,16.19
2018-05-13T21:05:18.400Z,16.19
2018-05-13T21:07:45.910Z,16.16
2018-05-13T21:10:13.430Z,16.17
2018-05-13T21:12:40.994Z,16.18
2018-05-13T21:15:08.598Z,16.21
2018-05-13T21:17:36.140Z,16.23
2018-05-13T21:20:03.702Z,16.25
2018-05-13T21:22:31.261Z,16.08
2018-05-13T21:24:58.812Z,16.20
2018-05-13T21:27:26.380Z,16.17
2018-05-13T21:29:53.910Z,16.16
2018-05-13T21:32:21.438Z,16.12
2018-05-13T21:34:49.006Z,16.10
2018-05-13T21:37:16.533Z,16.10
2018-05-13T21:39:44.089Z,16.09
2018-05-13T21:42:11.648Z,16.08
2018-05-13T21:44:39.859Z,16.09
2018-05-13T21:47:07.466Z,16.10
2018-05-13T21:49:35.223Z,16.11
2018-05-13T21:52:02.758Z,16.13
2018-05-13T21:54:30.360Z,16.15
2018-05-13T21:56:57.870Z,16.15
2018-05-13T21:59:25.418Z,16.14
2018-05-13T22:01:53.762Z,16.14
2018-05-13T22:04:21.346Z,16.17
2018-05-13T22:06:48.876Z,16.16
2018-05-13T22:09:16.421Z,16.13
2018-05-13T22:11:43.980Z,16.11
2018-05-13T22:14:11.547Z,16.09
2018-05-13T22:16:39.070Z,16.07
2018-05-13T22:19:06.637Z,16.03
2018-05-13T22:21:34.156Z,15.95
2018-05-13T22:24:01.707Z,15.97
2018-05-13T22:26:29.261Z,15.95
2018-05-13T22:28:56.799Z,16.01
2018-05-13T22:31:24.346Z,16.03
2018-05-13T22:33:51.944Z,16.08
2018-05-13T22:36:19.517Z,16.11
2018-05-13T22:38:47.052Z,16.15
2018-05-13T22:41:14.617Z,16.18
2018-05-13T22:43:42.192Z,16.18
2018-05-13T22:46:09.705Z,16.15
2018-05-13T22:48:37.271Z,16.16
2018-05-13T22:51:04.867Z,16.18
2018-05-13T22:53:32.412Z,16.15
2018-05-13T22:55:59.989Z,16.18
2018-05-13T22:58:27.548Z,16.14
2018-05-13T23:00:55.138Z,16.10
2018-05-13T23:03:22.752Z,16.08
2018-05-13T23:05:50.299Z,16.08
2018-05-13T23:08:17.877Z,16.07
2018-05-13T23:10:45.430Z,16.07
2018-05-13T23:13:12.994Z,16.07
2018-05-13T23:15:40.568Z,16.06
2018-05-13T23:18:08.118Z,16.03
2018-05-13T23:20:35.633Z,15.99
2018-05-13T23:23:03.177Z,15.99
2018-05-13T23:25:30.766Z,15.96
2018-05-13T23:27:58.411Z,15.94
2018-05-13T23:30:25.956Z,15.92
2018-05-13T23:32:53.499Z,15.91
2018-05-13T23:35:20.991Z,15.90
2018-05-13T23:37:48.540Z,15.89
2018-05-13T23:40:16.091Z,15.89
2018-05-13T23:42:43.612Z,15.89
2018-05-13T23:45:11.119Z,15.89
2018-05-13T23:47:38.679Z,15.88
2018-05-13T23:50:06.178Z,15.87
2018-05-13T23:52:33.710Z,15.85
2018-05-13T23:55:01.325Z,15.83
2018-05-13T23:57:28.825Z,15.83
2018-05-13T23:59:56.348Z,15.82
